createdAt,value
2023-01-29T00:00:11.121Z,8.00
2023-01-29T00:02:41.922Z,8.00
2023-01-29T00:05:26.547Z,8.00
2023-01-29T00:07:57.424Z,8.00
2023-01-29T00:10:26.233Z,8.00
2023-01-29T00:12:54.453Z,7.90
2023-01-29T00:15:23.390Z,7.90
2023-01-29T00:17:51.649Z,7.90
2023-01-29T00:20:19.681Z,7.90
2023-01-29T00:22:47.762Z,7.80
2023-01-29T00:25:15.530Z,7.80
2023-01-29T00:27:44.153Z,7.80
2023-01-29T00:30:13.481Z,7.80
2023-01-29T00:32:41.800Z,7.80
2023-01-29T00:35:13.001Z,7.80
2023-01-29T00:37:40.858Z,7.80
2023-01-29T00:40:10.483Z,7.80
2023-01-29T00:42:56.940Z,7.80
2023-01-29T00:45:25.128Z,7.80
2023-01-29T00:47:53.031Z,7.70
2023-01-29T00:50:20.966Z,7.70
2023-01-29T00:52:50.393Z,7.70
2023-01-29T00:55:18.910Z,7.70
2023-01-29T00:57:46.983Z,7.70
2023-01-29T01:00:18.137Z,7.60
2023-01-29T01:03:04.870Z,7.60
2023-01-29T01:05:33.422Z,7.50
2023-01-29T01:08:01.340Z,7.40
2023-01-29T01:10:34.043Z,7.40
2023-01-29T01:13:08.499Z,7.40
2023-01-29T01:15:39.068Z,7.40
2023-01-29T01:18:07.287Z,7.40
2023-01-29T01:20:36.577Z,7.30
2023-01-29T01:23:05.574Z,7.30
2023-01-29T01:25:34.218Z,7.30
2023-01-29T01:28:02.015Z,7.30
2023-01-29T01:30:30.211Z,7.20
2023-01-29T01:32:58.392Z,7.20
2023-01-29T01:35:26.144Z,7.10
2023-01-29T01:37:56.903Z,7.10
2023-01-29T01:40:27.362Z,7.10
2023-01-29T01:42:57.974Z,7.00
2023-01-29T01:45:33.829Z,7.00
2023-01-29T01:48:17.636Z,7.00
2023-01-29T01:51:00.941Z,6.90
2023-01-29T01:53:39.266Z,6.90
2023-01-29T01:56:15.439Z,6.80
2023-01-29T01:58:51.253Z,6.80
2023-01-29T02:01:26.903Z,6.80
2023-01-29T02:04:19.089Z,6.80
2023-01-29T02:07:06.253Z,6.80
2023-01-29T02:09:43.465Z,6.80
2023-01-29T02:12:16.724Z,6.80
2023-01-29T02:14:46.340Z,6.70
2023-01-29T02:17:17.358Z,6.80
2023-01-29T02:20:09.361Z,6.70
2023-01-29T02:22:56.442Z,6.70
2023-01-29T02:26:23.346Z,6.70
2023-01-29T02:29:27.546Z,6.60
2023-01-29T02:32:01.736Z,6.60
2023-01-29T02:35:02.369Z,6.60
2023-01-29T02:37:58.360Z,6.60
2023-01-29T02:40:26.419Z,6.60
2023-01-29T02:43:08.411Z,6.50
2023-01-29T02:45:54.830Z,6.50
2023-01-29T02:48:26.235Z,6.50
2023-01-29T02:51:05.408Z,6.50
2023-01-29T02:54:03.384Z,6.40
2023-01-29T02:56:52.257Z,6.40
2023-01-29T02:59:34.541Z,6.40
2023-01-29T03:02:09.003Z,6.40
2023-01-29T03:04:43.624Z,6.40
2023-01-29T03:07:37.696Z,6.40
2023-01-29T03:10:12.115Z,6.30
2023-01-29T03:12:42.948Z,6.30
2023-01-29T03:15:39.712Z,6.30
2023-01-29T03:18:28.052Z,6.30
2023-01-29T03:21:27.565Z,6.40
2023-01-29T03:24:18.430Z,6.50
2023-01-29T03:27:06.784Z,6.50
2023-01-29T03:30:01.058Z,6.50
2023-01-29T03:32:49.429Z,6.50
2023-01-29T03:35:37.196Z,6.50
2023-01-29T03:38:12.003Z,6.50
2023-01-29T03:40:54.124Z,6.50
2023-01-29T03:43:45.112Z,6.50
2023-01-29T03:46:35.253Z,6.50
2023-01-29T03:49:36.652Z,6.50
2023-01-29T03:52:20.291Z,6.50
2023-01-29T03:55:01.230Z,6.40
2023-01-29T03:57:40.677Z,6.30
2023-01-29T04:00:28.295Z,6.30
2023-01-29T04:03:18.456Z,6.20
2023-01-29T04:06:17.994Z,6.20
2023-01-29T04:09:04.921Z,6.10
2023-01-29T04:11:39.059Z,6.10
2023-01-29T04:14:08.974Z,6.10
2023-01-29T04:16:44.967Z,6.10
2023-01-29T04:19:20.567Z,6.10
2023-01-29T04:21:53.697Z,6.20
2023-01-29T04:24:21.577Z,6.20
2023-01-29T04:27:18.022Z,6.20
2023-01-29T04:30:02.008Z,6.20
2023-01-29T04:32:50.580Z,6.20
2023-01-29T04:35:46.311Z,6.30
2023-01-29T04:38:41.792Z,6.20
2023-01-29T04:41:33.884Z,6.20
2023-01-29T04:44:19.021Z,6.20
2023-01-29T04:47:20.527Z,6.30
2023-01-29T04:50:37.897Z,6.30
2023-01-29T04:53:24.182Z,6.40
2023-01-29T04:55:58.020Z,6.40
2023-01-29T04:59:13.467Z,6.40
2023-01-29T05:01:41.894Z,6.50
2023-01-29T05:04:14.350Z,6.50
2023-01-29T05:06:44.029Z,6.50
2023-01-29T05:09:15.031Z,6.50
2023-01-29T05:11:45.264Z,6.50
2023-01-29T05:14:16.036Z,6.60
2023-01-29T05:16:48.262Z,6.60
2023-01-29T05:19:17.400Z,6.60
2023-01-29T05:21:50.364Z,6.60
2023-01-29T05:24:23.865Z,6.60
2023-01-29T05:27:12.323Z,6.60
2023-01-29T05:29:45.967Z,6.70
2023-01-29T05:32:14.605Z,6.70
2023-01-29T05:34:42.593Z,6.70
2023-01-29T05:37:11.551Z,6.70
2023-01-29T05:39:39.387Z,6.70
2023-01-29T05:42:08.120Z,6.70
2023-01-29T05:44:35.919Z,6.70
2023-01-29T05:47:03.847Z,6.70
2023-01-29T05:49:31.679Z,6.70
2023-01-29T05:51:59.585Z,6.70
2023-01-29T05:54:27.685Z,6.70
2023-01-29T05:56:55.563Z,6.70
2023-01-29T05:59:23.564Z,6.70
2023-01-29T06:01:51.773Z,6.70
2023-01-29T06:04:19.512Z,6.70
2023-01-29T06:06:47.388Z,6.70
2023-01-29T06:09:15.487Z,6.70
2023-01-29T06:11:46.145Z,6.70
2023-01-29T06:14:13.974Z,6.60
2023-01-29T06:16:41.848Z,6.60
2023-01-29T06:19:09.707Z,6.60
2023-01-29T06:21:37.462Z,6.60
2023-01-29T06:24:05.907Z,6.50
2023-01-29T06:26:33.741Z,6.50
2023-01-29T06:29:01.557Z,6.60
2023-01-29T06:31:38.529Z,6.50
2023-01-29T06:34:08.513Z,6.50
2023-01-29T06:36:36.452Z,6.50
2023-01-29T06:39:05.258Z,6.50
2023-01-29T06:41:32.988Z,6.50
2023-01-29T06:44:01.034Z,6.50
2023-01-29T06:46:28.711Z,6.60
2023-01-29T06:49:00.622Z,6.60
2023-01-29T06:51:28.865Z,6.60
2023-01-29T06:53:59.369Z,6.60
2023-01-29T06:56:27.130Z,6.70
2023-01-29T06:58:55.125Z,6.70
2023-01-29T07:01:35.288Z,6.70
2023-01-29T07:04:04.926Z,6.70
2023-01-29T07:06:32.779Z,6.70
2023-01-29T07:09:00.800Z,6.80
2023-01-29T07:11:28.826Z,6.80
2023-01-29T07:13:56.685Z,6.80
2023-01-29T07:16:25.497Z,6.90
2023-01-29T07:18:53.498Z,7.00
2023-01-29T07:21:21.329Z,7.20
2023-01-29T07:23:49.222Z,7.50
2023-01-29T07:26:17.132Z,7.70
2023-01-29T07:28:44.875Z,7.90
2023-01-29T07:31:14.669Z,8.10
2023-01-29T07:33:44.807Z,8.20
2023-01-29T07:36:13.159Z,8.30
2023-01-29T07:38:40.908Z,8.40
2023-01-29T07:41:10.291Z,8.40
2023-01-29T07:43:38.053Z,8.40
2023-01-29T07:46:06.160Z,8.40
2023-01-29T07:48:34.173Z,8.40
2023-01-29T07:51:02.094Z,8.30
2023-01-29T07:53:30.108Z,8.30
2023-01-29T07:55:58.662Z,8.20
2023-01-29T07:58:26.530Z,8.20
2023-01-29T08:00:54.383Z,8.20
2023-01-29T08:03:22.311Z,8.20
2023-01-29T08:05:50.291Z,8.20
2023-01-29T08:08:19.577Z,8.30
2023-01-29T08:10:47.699Z,8.40
2023-01-29T08:13:15.958Z,8.60
2023-01-29T08:15:48.095Z,8.70
2023-01-29T08:18:16.594Z,8.90
2023-01-29T08:20:44.402Z,9.10
2023-01-29T08:23:17.545Z,9.30
2023-01-29T08:25:45.521Z,9.40
2023-01-29T08:28:13.679Z,9.50
2023-01-29T08:30:42.117Z,9.70
2023-01-29T08:33:09.870Z,9.90
2023-01-29T08:35:38.384Z,10.20
2023-01-29T08:38:06.359Z,10.70
2023-01-29T08:40:35.746Z,11.30
2023-01-29T08:43:07.833Z,12.00
2023-01-29T08:45:39.173Z,12.40
2023-01-29T08:48:07.370Z,12.50
2023-01-29T08:50:36.242Z,12.50
2023-01-29T08:53:08.191Z,12.40
2023-01-29T08:55:40.935Z,12.20
2023-01-29T08:58:11.824Z,12.10
2023-01-29T09:00:39.865Z,12.10
2023-01-29T09:03:08.261Z,12.00
2023-01-29T09:05:37.413Z,12.00
2023-01-29T09:08:06.072Z,12.00
2023-01-29T09:10:34.410Z,11.90
2023-01-29T09:13:02.298Z,11.90
2023-01-29T09:15:31.466Z,11.90
2023-01-29T09:18:02.874Z,11.90
2023-01-29T09:20:31.320Z,12.00
2023-01-29T09:22:59.565Z,12.10
2023-01-29T09:25:27.529Z,12.50
2023-01-29T09:27:55.593Z,13.20
2023-01-29T09:30:23.506Z,13.50
2023-01-29T09:32:54.118Z,13.70
2023-01-29T09:35:23.903Z,14.00
2023-01-29T09:37:52.876Z,14.30
2023-01-29T09:40:27.241Z,14.60
2023-01-29T09:43:13.580Z,15.00
2023-01-29T09:46:01.676Z,15.70
2023-01-29T09:48:32.666Z,15.90
2023-01-29T09:51:06.847Z,15.80
2023-01-29T09:53:53.625Z,15.70
2023-01-29T09:56:24.087Z,15.70
2023-01-29T09:58:52.040Z,15.80
2023-01-29T10:01:43.191Z,16.30
2023-01-29T10:04:47.860Z,16.10
2023-01-29T10:08:03.115Z,15.70
2023-01-29T10:10:39.557Z,15.50
2023-01-29T10:13:28.806Z,15.20
2023-01-29T10:16:00.388Z,15.50
2023-01-29T10:18:57.994Z,15.30
2023-01-29T10:21:37.407Z,15.30
2023-01-29T10:24:24.433Z,15.30
2023-01-29T10:26:53.354Z,15.80
2023-01-29T10:29:22.578Z,16.40
2023-01-29T10:31:56.956Z,17.30
2023-01-29T10:34:58.037Z,18.70
2023-01-29T10:37:39.572Z,18.60
2023-01-29T10:40:28.489Z,19.20
2023-01-29T10:43:01.197Z,19.60
2023-01-29T10:46:00.986Z,19.90
2023-01-29T10:48:46.680Z,20.90
2023-01-29T10:51:45.381Z,21.10
2023-01-29T10:54:36.326Z,22.50
2023-01-29T10:57:18.373Z,23.60
2023-01-29T11:00:15.903Z,24.00
2023-01-29T11:02:46.323Z,24.50
2023-01-29T11:05:42.872Z,23.80
2023-01-29T11:08:18.480Z,22.80
2023-01-29T11:11:18.155Z,21.80
2023-01-29T11:14:16.180Z,20.70
2023-01-29T11:16:47.365Z,19.20
2023-01-29T11:19:16.867Z,18.70
2023-01-29T11:22:13.475Z,18.20
2023-01-29T11:24:41.409Z,18.40
2023-01-29T11:27:29.903Z,18.50
2023-01-29T11:29:58.315Z,18.30
2023-01-29T11:32:30.004Z,17.90
2023-01-29T11:35:21.535Z,17.50
2023-01-29T11:37:49.842Z,17.20
2023-01-29T11:40:20.900Z,17.60
2023-01-29T11:42:50.044Z,19.60
2023-01-29T11:45:23.628Z,20.90
2023-01-29T11:47:55.266Z,20.70
2023-01-29T11:50:29.714Z,19.90
2023-01-29T11:53:00.635Z,19.00
2023-01-29T11:55:49.533Z,18.30
2023-01-29T11:58:32.118Z,17.70
2023-01-29T12:01:01.234Z,17.00
2023-01-29T12:03:37.992Z,16.60
2023-01-29T12:06:19.826Z,16.20
2023-01-29T12:08:59.248Z,16.00
2023-01-29T12:11:34.805Z,15.60
2023-01-29T12:14:24.994Z,15.60
2023-01-29T12:17:12.743Z,15.90
2023-01-29T12:19:51.519Z,16.40
2023-01-29T12:22:44.232Z,18.60
2023-01-29T12:25:36.159Z,19.80
2023-01-29T12:28:35.163Z,19.30
2023-01-29T12:31:18.550Z,19.90
2023-01-29T12:34:13.919Z,21.50
2023-01-29T12:37:03.544Z,23.40
2023-01-29T12:39:32.827Z,25.30
2023-01-29T12:42:15.056Z,26.70
2023-01-29T12:44:50.020Z,27.10
2023-01-29T12:47:29.808Z,28.30
2023-01-29T12:50:02.840Z,28.10
2023-01-29T12:52:42.285Z,27.90
2023-01-29T12:55:37.074Z,26.50
2023-01-29T12:58:13.676Z,23.60
2023-01-29T13:00:45.888Z,22.30
2023-01-29T13:03:27.742Z,20.90
2023-01-29T13:06:04.857Z,20.40
2023-01-29T13:09:00.720Z,21.40
2023-01-29T13:11:38.323Z,22.80
2023-01-29T13:14:23.515Z,22.10
2023-01-29T13:17:03.828Z,21.00
2023-01-29T13:19:44.015Z,20.00
2023-01-29T13:22:28.228Z,18.80
2023-01-29T13:25:04.689Z,18.00
2023-01-29T13:27:35.998Z,17.20
2023-01-29T13:30:05.003Z,17.00
2023-01-29T13:32:36.624Z,17.00
2023-01-29T13:35:14.166Z,17.40
2023-01-29T13:37:55.779Z,17.80
2023-01-29T13:40:28.182Z,17.80
2023-01-29T13:42:59.933Z,17.50
2023-01-29T13:45:44.314Z,17.00
2023-01-29T13:48:27.962Z,16.30
2023-01-29T13:51:00.518Z,15.70
2023-01-29T13:53:40.841Z,15.40
2023-01-29T13:56:33.560Z,15.10
2023-01-29T13:59:03.876Z,14.80
2023-01-29T14:01:49.745Z,14.60
2023-01-29T14:04:22.917Z,14.20
2023-01-29T14:06:53.509Z,14.10
2023-01-29T14:09:39.543Z,13.90
2023-01-29T14:12:22.338Z,13.90
2023-01-29T14:14:57.065Z,13.90
2023-01-29T14:17:27.562Z,14.00
2023-01-29T14:20:18.919Z,14.00
2023-01-29T14:22:58.046Z,14.00
2023-01-29T14:25:38.894Z,14.20
2023-01-29T14:28:20.525Z,14.20
2023-01-29T14:30:50.082Z,13.90
2023-01-29T14:33:34.274Z,13.70
2023-01-29T14:36:09.940Z,13.60
2023-01-29T14:38:39.419Z,13.50
2023-01-29T14:41:22.024Z,13.40
2023-01-29T14:43:49.921Z,13.40
2023-01-29T14:46:35.822Z,13.30
2023-01-29T14:49:04.211Z,13.30
2023-01-29T14:51:38.674Z,13.20
2023-01-29T14:54:34.083Z,13.10
2023-01-29T14:57:07.028Z,13.10
2023-01-29T15:00:00.340Z,13.20
2023-01-29T15:02:42.526Z,13.20
2023-01-29T15:05:20.567Z,13.20
2023-01-29T15:07:55.104Z,13.40
2023-01-29T15:10:33.902Z,13.50
2023-01-29T15:13:05.241Z,13.50
2023-01-29T15:15:54.938Z,13.50
2023-01-29T15:18:51.220Z,13.40
2023-01-29T15:21:20.203Z,13.40
2023-01-29T15:23:49.355Z,13.40
2023-01-29T15:26:22.072Z,13.30
2023-01-29T15:29:04.189Z,13.20
2023-01-29T15:31:33.729Z,13.10
2023-01-29T15:34:07.792Z,13.00
2023-01-29T15:36:37.742Z,12.90
2023-01-29T15:39:24.504Z,12.90
2023-01-29T15:42:11.776Z,12.80
2023-01-29T15:44:46.602Z,12.70
2023-01-29T15:47:15.948Z,12.60
2023-01-29T15:49:45.911Z,12.50
2023-01-29T15:52:27.446Z,12.40
2023-01-29T15:54:58.170Z,12.40
2023-01-29T15:57:34.646Z,12.40
2023-01-29T16:00:03.080Z,12.40
2023-01-29T16:02:42.923Z,12.30
2023-01-29T16:05:31.105Z,12.30
2023-01-29T16:08:01.262Z,12.20
2023-01-29T16:10:32.430Z,12.10
2023-01-29T16:13:01.251Z,12.10
2023-01-29T16:15:35.654Z,12.00
2023-01-29T16:18:19.527Z,11.90
2023-01-29T16:20:52.866Z,11.90
2023-01-29T16:23:28.257Z,11.80
2023-01-29T16:26:07.663Z,11.80
2023-01-29T16:28:41.852Z,11.80
2023-01-29T16:31:11.550Z,11.80
2023-01-29T16:33:43.035Z,11.70
2023-01-29T16:36:19.019Z,11.70
2023-01-29T16:39:14.627Z,11.60
2023-01-29T16:41:42.476Z,11.60
2023-01-29T16:44:16.574Z,11.60
2023-01-29T16:46:49.273Z,11.60
2023-01-29T16:49:29.349Z,11.70
2023-01-29T16:52:15.489Z,11.70
2023-01-29T16:54:44.151Z,11.70
2023-01-29T16:57:16.796Z,11.70
2023-01-29T16:59:46.247Z,11.60
2023-01-29T17:02:25.254Z,11.50
2023-01-29T17:04:57.802Z,11.40
2023-01-29T17:07:26.159Z,11.30
2023-01-29T17:10:00.383Z,11.30
2023-01-29T17:12:29.811Z,11.20
2023-01-29T17:15:00.706Z,11.30
2023-01-29T17:17:34.139Z,11.20
2023-01-29T17:20:16.606Z,11.20
2023-01-29T17:22:45.498Z,11.20
2023-01-29T17:25:17.461Z,11.10
2023-01-29T17:27:51.866Z,11.10
2023-01-29T17:30:22.776Z,11.10
2023-01-29T17:32:50.704Z,11.10
2023-01-29T17:35:18.875Z,11.10
2023-01-29T17:37:46.977Z,11.00
2023-01-29T17:40:28.656Z,11.00
2023-01-29T17:42:56.573Z,11.00
2023-01-29T17:45:24.467Z,11.00
2023-01-29T17:47:52.316Z,11.00
2023-01-29T17:50:24.444Z,10.90
2023-01-29T17:52:53.478Z,10.90
2023-01-29T17:55:21.379Z,10.90
2023-01-29T17:57:52.492Z,10.90
2023-01-29T18:00:25.300Z,10.90
2023-01-29T18:02:53.253Z,10.90
2023-01-29T18:05:21.108Z,10.90
2023-01-29T18:07:52.144Z,10.80
2023-01-29T18:10:21.983Z,10.80
2023-01-29T18:12:49.729Z,10.90
2023-01-29T18:15:18.594Z,10.90
2023-01-29T18:17:47.287Z,10.90
2023-01-29T18:20:25.788Z,10.90
2023-01-29T18:22:54.520Z,10.80
2023-01-29T18:25:24.147Z,10.80
2023-01-29T18:27:52.931Z,10.80
2023-01-29T18:30:20.804Z,10.80
2023-01-29T18:32:50.633Z,10.80
2023-01-29T18:35:18.645Z,10.70
2023-01-29T18:37:47.133Z,10.80
2023-01-29T18:40:17.465Z,10.70
2023-01-29T18:42:46.583Z,10.70
2023-01-29T18:45:15.918Z,10.70
2023-01-29T18:47:44.403Z,10.60
2023-01-29T18:50:12.727Z,10.60
2023-01-29T18:52:41.302Z,10.50
2023-01-29T18:55:10.104Z,10.50
2023-01-29T18:58:25.164Z,10.40
2023-01-29T19:00:27.471Z,10.40
2023-01-29T19:02:55.111Z,10.30
2023-01-29T19:05:24.855Z,10.30
2023-01-29T19:07:52.840Z,10.20
2023-01-29T19:10:20.698Z,10.10
2023-01-29T19:12:48.443Z,10.10
2023-01-29T19:15:21.161Z,10.10
2023-01-29T19:17:50.799Z,10.00
2023-01-29T19:20:21.633Z,10.00
2023-01-29T19:22:49.544Z,10.00
2023-01-29T19:25:18.235Z,9.90
2023-01-29T19:27:46.639Z,9.90
2023-01-29T19:30:15.027Z,9.90
2023-01-29T19:32:42.901Z,9.90
2023-01-29T19:35:10.643Z,9.90
2023-01-29T19:37:38.666Z,9.90
2023-01-29T19:40:08.398Z,9.90
2023-01-29T19:42:37.898Z,9.80
2023-01-29T19:45:06.200Z,9.80
2023-01-29T19:47:39.396Z,9.80
2023-01-29T19:50:08.843Z,9.70
2023-01-29T19:52:52.326Z,9.70
2023-01-29T19:55:21.637Z,9.70
2023-01-29T19:57:52.059Z,9.60
2023-01-29T20:00:20.905Z,9.60
2023-01-29T20:02:48.956Z,9.50
2023-01-29T20:05:18.987Z,9.50
2023-01-29T20:07:47.249Z,9.40
2023-01-29T20:10:17.890Z,9.40
2023-01-29T20:12:47.867Z,9.40
2023-01-29T20:15:16.385Z,9.40
2023-01-29T20:17:46.676Z,9.40
2023-01-29T20:20:15.207Z,9.30
2023-01-29T20:22:43.132Z,9.40
2023-01-29T20:25:14.110Z,9.30
2023-01-29T20:27:42.639Z,9.40
2023-01-29T20:30:11.832Z,9.30
2023-01-29T20:32:40.114Z,9.30
2023-01-29T20:35:08.752Z,9.30
2023-01-29T20:37:37.148Z,9.30
2023-01-29T20:40:05.457Z,9.30
2023-01-29T20:42:33.227Z,9.30
2023-01-29T20:45:01.563Z,9.30
2023-01-29T20:47:29.589Z,9.30
2023-01-29T20:49:57.729Z,9.20
2023-01-29T20:52:25.731Z,9.20
2023-01-29T20:54:54.017Z,9.20
2023-01-29T20:57:22.209Z,9.10
2023-01-29T20:59:50.502Z,9.10
2023-01-29T21:02:18.635Z,9.10
2023-01-29T21:04:46.606Z,9.10
2023-01-29T21:07:14.694Z,9.10
2023-01-29T21:09:44.030Z,9.00
2023-01-29T21:12:13.056Z,9.00
2023-01-29T21:14:41.247Z,9.00
2023-01-29T21:17:09.669Z,9.00
2023-01-29T21:19:37.586Z,8.90
2023-01-29T21:22:08.450Z,9.00
2023-01-29T21:24:37.123Z,9.00
2023-01-29T21:27:05.184Z,8.90
2023-01-29T21:29:33.459Z,9.00
2023-01-29T21:32:01.417Z,8.90
2023-01-29T21:34:29.698Z,8.90
2023-01-29T21:36:57.480Z,8.90
2023-01-29T21:39:27.291Z,8.90
2023-01-29T21:42:13.657Z,8.80
2023-01-29T21:44:41.705Z,8.80
2023-01-29T21:47:19.296Z,8.80
2023-01-29T21:49:47.799Z,8.70
2023-01-29T21:52:15.876Z,8.70
2023-01-29T21:54:47.998Z,8.60
2023-01-29T21:57:17.200Z,8.60
2023-01-29T21:59:47.051Z,8.60
2023-01-29T22:02:22.584Z,8.60
2023-01-29T22:04:52.563Z,8.60
2023-01-29T22:07:20.528Z,8.60
2023-01-29T22:09:48.341Z,8.50
2023-01-29T22:12:17.813Z,8.50
2023-01-29T22:14:47.818Z,8.50
2023-01-29T22:17:16.890Z,8.50
2023-01-29T22:19:44.891Z,8.40
2023-01-29T22:22:17.008Z,8.50
2023-01-29T22:24:47.071Z,8.40
2023-01-29T22:27:16.178Z,8.40
2023-01-29T22:29:44.330Z,8.40
2023-01-29T22:32:13.626Z,8.30
2023-01-29T22:34:41.953Z,8.30
2023-01-29T22:37:10.210Z,8.30
2023-01-29T22:39:38.196Z,8.30
2023-01-29T22:42:06.371Z,8.30
2023-01-29T22:44:34.624Z,8.20
2023-01-29T22:47:02.579Z,8.20
2023-01-29T22:49:31.143Z,8.10
2023-01-29T22:52:11.231Z,8.10
2023-01-29T22:54:43.877Z,8.10
2023-01-29T22:57:13.715Z,8.10
2023-01-29T22:59:41.914Z,8.10
2023-01-29T23:02:09.977Z,8.00
2023-01-29T23:04:38.126Z,8.00
2023-01-29T23:07:05.959Z,7.90
2023-01-29T23:09:33.948Z,7.90
2023-01-29T23:12:03.037Z,7.80
2023-01-29T23:14:30.839Z,7.80
2023-01-29T23:16:58.873Z,7.70
2023-01-29T23:19:27.441Z,7.70
2023-01-29T23:21:55.403Z,7.70
2023-01-29T23:24:23.325Z,7.70
2023-01-29T23:27:09.609Z,7.70
2023-01-29T23:29:37.775Z,7.70
2023-01-29T23:32:07.391Z,7.70
2023-01-29T23:34:35.603Z,7.60
2023-01-29T23:37:03.870Z,7.60
2023-01-29T23:39:32.102Z,7.60
2023-01-29T23:42:00.915Z,7.60
2023-01-29T23:44:28.886Z,7.50
2023-01-29T23:46:56.889Z,7.50
2023-01-29T23:49:25.179Z,7.50
2023-01-29T23:51:53.168Z,7.50
2023-01-29T23:54:21.064Z,7.40
2023-01-29T23:56:49.185Z,7.40
2023-01-29T23:59:17.673Z,7.40
